Time;durP1;ratioP1;P1;durP2;ratioP2;P2;SDS_P1;SDS_P2;PMS_P1;PMS_P2;Temp;Humidity;BMP_temperature;BMP_pressure;BME280_temperature;BME280_humidity;BME280_pressure;Samples;Min_cycle;Max_cycle;Signal;HPM_P1;HPM_P2
2021/12/03 00:00:45;;;;;;;2.83;1.83;;;1.00;99.90;;;;;;5093600;28;20028;-44
2021/12/03 00:03:12;;;;;;;1.63;1.00;;;1.00;99.90;;;;;;5082311;28;20032;-46
2021/12/03 00:05:40;;;;;;;4.63;1.02;;;0.90;99.90;;;;;;5073228;28;20048;-44
2021/12/03 00:08:06;;;;;;;3.70;1.90;;;1.00;99.90;;;;;;5073244;28;20017;-44
2021/12/03 00:10:32;;;;;;;2.17;0.82;;;0.90;99.90;;;;;;5072573;28;20374;-46
2021/12/03 00:12:58;;;;;;;1.13;0.93;;;1.00;99.90;;;;;;5073080;28;20033;-45
2021/12/03 00:15:25;;;;;;;2.67;1.30;;;1.00;99.90;;;;;;5091299;28;20111;-45
2021/12/03 00:17:52;;;;;;;1.35;1.20;;;1.00;99.90;;;;;;5092739;28;20024;-44
2021/12/03 00:20:18;;;;;;;2.25;1.30;;;1.00;99.90;;;;;;5093161;28;20112;-43
2021/12/03 00:22:46;;;;;;;1.67;1.10;;;1.00;99.90;;;;;;5084203;28;20103;-44
2021/12/03 00:25:12;;;;;;;5.72;1.60;;;1.00;99.90;;;;;;5072402;28;20032;-45
2021/12/03 00:27:39;;;;;;;3.58;1.92;;;1.00;99.90;;;;;;5072819;28;20051;-44
2021/12/03 00:30:08;;;;;;;2.42;1.50;;;1.10;99.90;;;;;;5072627;28;20016;-44
2021/12/03 00:32:34;;;;;;;5.07;2.15;;;1.10;99.90;;;;;;5078425;28;20020;-45
2021/12/03 00:34:59;;;;;;;1.50;1.38;;;1.10;99.90;;;;;;5092940;28;20441;-45
2021/12/03 00:37:25;;;;;;;2.53;1.50;;;1.20;99.90;;;;;;5092861;28;20070;-45
2021/12/03 00:39:51;;;;;;;1.67;1.40;;;1.20;99.90;;;;;;5092234;28;20024;-44
2021/12/03 00:42:18;;;;;;;5.32;2.03;;;1.10;99.90;;;;;;5091096;28;20040;-45
2021/12/03 00:44:49;;;;;;;5.72;2.45;;;1.20;99.90;;;;;;5092763;28;20055;-45
2021/12/03 00:47:14;;;;;;;5.75;2.17;;;1.10;99.90;;;;;;5092410;28;20024;-44
2021/12/03 00:49:40;;;;;;;7.40;2.83;;;1.20;99.90;;;;;;5092782;28;20039;-44
2021/12/03 00:52:06;;;;;;;5.13;2.35;;;1.20;99.90;;;;;;5089788;28;21918;-46
2021/12/03 00:54:32;;;;;;;4.88;2.58;;;1.20;99.90;;;;;;5072027;28;20020;-44
2021/12/03 00:56:58;;;;;;;4.22;2.42;;;1.30;99.90;;;;;;5072226;28;20036;-44
2021/12/03 00:59:23;;;;;;;3.50;2.38;;;1.30;99.90;;;;;;5071908;28;20031;-45
2021/12/03 01:01:49;;;;;;;5.28;2.42;;;1.30;99.90;;;;;;5072184;28;20066;-45
2021/12/03 01:04:15;;;;;;;6.63;2.92;;;1.30;99.90;;;;;;5091571;28;20104;-44
2021/12/03 01:06:41;;;;;;;5.82;2.85;;;1.30;99.90;;;;;;5091903;28;20482;-44
2021/12/03 01:09:06;;;;;;;3.38;2.38;;;1.40;99.90;;;;;;5092352;28;20031;-43
2021/12/03 01:11:32;;;;;;;6.18;2.28;;;1.30;99.90;;;;;;5092394;28;20020;-44
2021/12/03 01:14:00;;;;;;;7.72;2.47;;;1.40;99.90;;;;;;5074977;28;20032;-44
2021/12/03 01:16:27;;;;;;;4.55;2.30;;;1.40;99.90;;;;;;5072365;28;20024;-43
2021/12/03 01:18:53;;;;;;;7.18;2.20;;;1.40;99.90;;;;;;5071974;28;20025;-44
2021/12/03 01:21:19;;;;;;;6.53;2.38;;;1.40;99.90;;;;;;5071757;28;20025;-45
2021/12/03 01:23:45;;;;;;;5.63;3.03;;;1.50;99.90;;;;;;5085412;28;20103;-48
2021/12/03 01:26:11;;;;;;;11.82;2.67;;;1.50;99.90;;;;;;5092328;28;20059;-44
2021/12/03 01:28:37;;;;;;;5.72;2.42;;;1.50;99.90;;;;;;5091773;28;20051;-44
2021/12/03 01:31:03;;;;;;;5.45;2.80;;;1.50;99.90;;;;;;5092138;28;20024;-44
2021/12/03 01:33:29;;;;;;;5.38;2.97;;;1.50;99.90;;;;;;5081241;28;20463;-44
2021/12/03 01:35:54;;;;;;;4.75;2.45;;;1.50;99.90;;;;;;5071441;28;20047;-44
2021/12/03 01:38:20;;;;;;;4.30;1.95;;;1.50;99.90;;;;;;5071795;28;20063;-45
2021/12/03 01:40:46;;;;;;;4.45;2.17;;;1.50;99.90;;;;;;5071874;28;20029;-46
2021/12/03 01:43:20;;;;;;;3.17;2.50;;;1.50;99.90;;;;;;5072534;28;20028;-45
2021/12/03 01:45:45;;;;;;;4.03;2.55;;;1.50;99.90;;;;;;5071911;28;20128;-44
2021/12/03 01:48:11;;;;;;;5.43;2.63;;;1.50;99.90;;;;;;5071943;28;20507;-44
2021/12/03 01:50:44;;;;;;;4.70;2.83;;;1.50;99.90;;;;;;5071449;28;20460;-44
2021/12/03 01:53:12;;;;;;;7.35;3.63;;;1.50;99.90;;;;;;5078846;28;20028;-43
2021/12/03 01:55:38;;;;;;;7.38;4.68;;;1.50;99.90;;;;;;5090945;28;20548;-43
2021/12/03 01:58:05;;;;;;;6.50;3.17;;;1.50;99.90;;;;;;5092089;28;20583;-45
2021/12/03 02:00:39;;;;;;;6.15;3.97;;;1.50;99.90;;;;;;5091955;28;20036;-44
2021/12/03 02:03:06;;;;;;;7.82;4.32;;;1.50;99.90;;;;;;5084779;28;20046;-47
2021/12/03 02:05:32;;;;;;;9.38;4.57;;;1.50;99.90;;;;;;5071527;28;20107;-43
2021/12/03 02:07:58;;;;;;;10.32;5.18;;;1.50;99.90;;;;;;5071595;28;20081;-45
2021/12/03 02:10:24;;;;;;;6.05;4.05;;;1.50;99.90;;;;;;5071236;28;20028;-45
2021/12/03 02:12:50;;;;;;;7.97;4.60;;;1.50;99.90;;;;;;5072515;28;20020;-43
2021/12/03 02:15:16;;;;;;;7.40;4.78;;;1.50;99.90;;;;;;5072633;28;20429;-46
2021/12/03 02:17:42;;;;;;;10.65;7.13;;;1.60;99.90;;;;;;5074868;28;20077;-43
2021/12/03 02:20:10;;;;;;;15.68;6.88;;;1.60;99.90;;;;;;5075086;28;20051;-44
2021/12/03 02:22:37;;;;;;;9.02;5.32;;;1.60;99.90;;;;;;5075360;28;20020;-44
2021/12/03 02:25:06;;;;;;;11.00;6.70;;;1.60;99.90;;;;;;5094038;28;20020;-43
2021/12/03 02:27:32;;;;;;;;;;;1.60;99.90;;;;;;5096012;28;20012;-43
2021/12/03 02:29:57;;;;;;;8.98;6.32;;;1.60;99.90;;;;;;5095436;28;19908;-44
2021/12/03 02:32:23;;;;;;;10.25;5.00;;;1.60;99.90;;;;;;5091867;28;20028;-44
2021/12/03 02:34:48;;;;;;;8.25;5.32;;;1.60;99.90;;;;;;5076736;28;20023;-47
2021/12/03 02:37:14;;;;;;;8.73;5.32;;;1.60;99.90;;;;;;5095269;28;20102;-43
2021/12/03 02:39:40;;;;;;;8.63;5.97;;;1.60;99.90;;;;;;5094503;28;20021;-43
2021/12/03 02:42:05;;;;;;;12.75;6.90;;;1.70;99.90;;;;;;5095092;28;20031;-43
2021/12/03 02:44:31;;;;;;;11.07;5.05;;;1.60;99.90;;;;;;5095048;28;20024;-44
2021/12/03 02:46:57;;;;;;;12.18;7.60;;;1.60;99.90;;;;;;5075508;28;20025;-44
2021/12/03 02:49:22;;;;;;;9.98;5.80;;;1.60;99.90;;;;;;5074651;28;20020;-45
2021/12/03 02:51:48;;;;;;;12.73;6.35;;;1.60;99.90;;;;;;5074250;28;20021;-45
2021/12/03 02:54:14;;;;;;;13.50;6.22;;;1.60;99.90;;;;;;5074592;28;20035;-42
2021/12/03 02:56:39;;;;;;;7.50;5.55;;;1.60;99.90;;;;;;5090316;28;20475;-44
2021/12/03 02:59:05;;;;;;;8.07;5.82;;;1.60;99.90;;;;;;5094257;28;20024;-44
2021/12/03 03:01:31;;;;;;;13.50;7.45;;;1.60;99.90;;;;;;5094761;28;20034;-43
2021/12/03 03:03:57;;;;;;;12.73;7.68;;;1.50;99.90;;;;;;5087383;28;20103;-43
2021/12/03 03:06:22;;;;;;;9.23;5.40;;;1.50;99.90;;;;;;5074005;28;20047;-44
2021/12/03 03:08:48;;;;;;;8.05;4.60;;;1.50;99.90;;;;;;5074307;28;20032;-43
2021/12/03 03:11:16;;;;;;;8.93;5.95;;;1.50;99.90;;;;;;5074470;28;20091;-44
2021/12/03 03:13:42;;;;;;;12.77;5.93;;;1.50;99.90;;;;;;5078174;28;20107;-43
2021/12/03 03:16:08;;;;;;;10.65;6.05;;;1.50;99.90;;;;;;5094482;28;20024;-43
2021/12/03 03:18:35;;;;;;;19.30;7.40;;;1.50;99.90;;;;;;5094409;28;20028;-44
2021/12/03 03:21:02;;;;;;;16.27;6.40;;;1.50;99.90;;;;;;5093583;28;20059;-43
2021/12/03 03:23:28;;;;;;;10.32;6.13;;;1.50;99.90;;;;;;5093632;28;20107;-43
2021/12/03 03:25:54;;;;;;;11.00;7.22;;;1.60;99.90;;;;;;5074051;28;20499;-44
2021/12/03 03:28:21;;;;;;;11.32;6.88;;;1.60;99.90;;;;;;5054954;28;20582;-44
2021/12/03 03:30:48;;;;;;;15.07;5.88;;;1.60;99.90;;;;;;5073790;28;20024;-44
2021/12/03 03:33:15;;;;;;;9.68;6.38;;;1.60;99.90;;;;;;5074924;28;20035;-43
2021/12/03 03:35:41;;;;;;;10.93;6.60;;;1.50;99.90;;;;;;5073307;28;20238;-44
2021/12/03 03:38:07;;;;;;;10.95;5.13;;;1.50;99.90;;;;;;5073664;28;20112;-44
2021/12/03 03:40:33;;;;;;;15.05;6.65;;;1.50;99.90;;;;;;5073693;28;20040;-45
2021/12/03 03:43:01;;;;;;;12.32;6.63;;;1.50;99.90;;;;;;5073056;28;20020;-45
2021/12/03 03:45:28;;;;;;;14.05;7.47;;;1.50;99.90;;;;;;5093766;28;20122;-45
2021/12/03 03:47:54;;;;;;;13.38;5.93;;;1.50;99.90;;;;;;5093942;28;20028;-48
2021/12/03 03:50:21;;;;;;;11.50;7.13;;;1.50;99.90;;;;;;5093448;28;20047;-43
2021/12/03 03:52:48;;;;;;;8.75;5.20;;;1.50;99.90;;;;;;5093869;28;20497;-44
2021/12/03 03:55:15;;;;;;;16.35;6.10;;;1.40;99.90;;;;;;5074286;28;20052;-43
2021/12/03 03:57:41;;;;;;;15.75;5.63;;;1.40;99.90;;;;;;5073408;28;20037;-44
2021/12/03 04:00:12;;;;;;;13.68;6.32;;;1.40;99.90;;;;;;5073236;28;20040;-45
2021/12/03 04:02:38;;;;;;;12.10;5.95;;;1.40;99.90;;;;;;5072955;28;20023;-44
2021/12/03 04:05:05;;;;;;;19.02;8.40;;;1.40;99.90;;;;;;5089343;28;20024;-45
2021/12/03 04:07:30;;;;;;;17.10;7.93;;;1.40;99.90;;;;;;5093461;28;20028;-44
2021/12/03 04:09:56;;;;;;;12.23;6.55;;;1.40;99.90;;;;;;5092981;28;20448;-44
2021/12/03 04:12:22;;;;;;;11.40;7.30;;;1.40;99.90;;;;;;5093401;28;20058;-43
2021/12/03 04:14:47;;;;;;;10.57;6.85;;;1.40;99.90;;;;;;5078960;28;20100;-43
2021/12/03 04:17:14;;;;;;;8.10;5.85;;;1.40;99.90;;;;;;5072476;28;20032;-43
2021/12/03 04:19:40;;;;;;;17.55;7.82;;;1.40;99.90;;;;;;5073014;28;20024;-45
2021/12/03 04:22:06;;;;;;;11.85;6.80;;;1.40;99.90;;;;;;5073084;28;20032;-47
2021/12/03 04:24:32;;;;;;;13.35;6.20;;;1.40;99.90;;;;;;5083713;28;20074;-45
2021/12/03 04:26:57;;;;;;;13.77;7.40;;;1.40;99.90;;;;;;5092872;28;20048;-44
2021/12/03 04:29:23;;;;;;;17.15;6.93;;;1.40;99.90;;;;;;5093059;28;20047;-44
2021/12/03 04:31:49;;;;;;;9.35;6.13;;;1.40;99.90;;;;;;5092403;28;20021;-43
2021/12/03 04:34:14;;;;;;;13.52;6.57;;;1.40;99.90;;;;;;5091161;28;20109;-44
2021/12/03 04:36:40;;;;;;;18.63;6.75;;;1.40;99.90;;;;;;5092941;28;20024;-44
2021/12/03 04:39:06;;;;;;;14.95;7.05;;;1.40;99.90;;;;;;5092403;28;20448;-44
2021/12/03 04:41:32;;;;;;;10.40;6.50;;;1.40;99.90;;;;;;5092700;28;20027;-43
2021/12/03 04:43:57;;;;;;;14.38;7.38;;;1.40;99.90;;;;;;5072545;28;20452;-43
2021/12/03 04:46:23;;;;;;;12.07;6.53;;;1.40;99.90;;;;;;5072189;28;20016;-43
2021/12/03 04:48:49;;;;;;;15.50;8.40;;;1.40;99.90;;;;;;5072328;28;20031;-45
2021/12/03 04:51:15;;;;;;;10.07;7.03;;;1.40;99.90;;;;;;5072037;28;20016;-45
2021/12/03 04:53:40;;;;;;;11.57;6.55;;;1.40;99.90;;;;;;5088632;28;20027;-44
2021/12/03 04:56:06;;;;;;;10.93;7.25;;;1.40;99.90;;;;;;5092274;28;20056;-46
2021/12/03 04:58:32;;;;;;;10.95;7.13;;;1.40;99.90;;;;;;5092152;28;20490;-43
2021/12/03 05:00:58;;;;;;;9.80;6.75;;;1.40;99.90;;;;;;5092400;28;20035;-43
2021/12/03 05:03:25;;;;;;;13.32;7.55;;;1.40;99.90;;;;;;5078983;28;20035;-44
2021/12/03 05:05:55;;;;;;;9.80;6.63;;;1.40;99.90;;;;;;5071768;28;20036;-44
2021/12/03 05:08:21;;;;;;;11.05;6.55;;;1.40;99.90;;;;;;5071933;28;20060;-44
2021/12/03 05:10:48;;;;;;;10.57;7.00;;;1.40;99.90;;;;;;5072201;28;20025;-46
2021/12/03 05:13:19;;;;;;;12.43;6.28;;;1.40;99.90;;;;;;5082995;28;20028;-43
2021/12/03 05:15:46;;;;;;;9.55;6.55;;;1.40;99.90;;;;;;5092552;28;20031;-44
2021/12/03 05:18:14;;;;;;;12.57;7.43;;;1.40;99.90;;;;;;5092331;28;20081;-44
2021/12/03 05:20:42;;;;;;;15.20;6.28;;;1.40;99.90;;;;;;5091656;28;20115;-45
2021/12/03 05:23:08;;;;;;;12.00;6.75;;;1.40;99.90;;;;;;5081644;28;20029;-43
2021/12/03 05:25:35;;;;;;;16.40;7.50;;;1.40;99.90;;;;;;5072132;28;20416;-45
2021/12/03 05:28:01;;;;;;;9.27;6.63;;;1.40;99.90;;;;;;5071652;28;20470;-44
2021/12/03 05:30:27;;;;;;;8.68;6.53;;;1.40;99.90;;;;;;5072069;28;20017;-43
2021/12/03 05:32:53;;;;;;;16.90;8.70;;;1.40;99.90;;;;;;5079698;28;20020;-45
2021/12/03 05:35:20;;;;;;;11.57;6.70;;;1.40;99.90;;;;;;5091653;28;20082;-44
2021/12/03 05:37:45;;;;;;;9.93;6.40;;;1.40;99.90;;;;;;5092080;28;20476;-45
2021/12/03 05:40:13;;;;;;;14.18;7.80;;;1.40;99.90;;;;;;5091988;28;20028;-44
2021/12/03 05:42:39;;;;;;;14.38;7.63;;;1.50;99.90;;;;;;5085618;28;20058;-44
2021/12/03 05:45:09;;;;;;;11.50;6.80;;;1.50;99.90;;;;;;5071848;28;20025;-44
2021/12/03 05:47:35;;;;;;;14.00;7.10;;;1.50;99.90;;;;;;5071405;28;20145;-43
2021/12/03 05:50:00;;;;;;;11.18;6.65;;;1.50;99.90;;;;;;5072306;28;20479;-43
2021/12/03 05:52:26;;;;;;;12.93;7.85;;;1.50;99.90;;;;;;5079355;28;20081;-44
2021/12/03 05:54:51;;;;;;;13.30;6.53;;;1.50;99.90;;;;;;5095277;28;20456;-44
2021/12/03 05:57:17;;;;;;;12.60;5.75;;;1.50;99.90;;;;;;5096151;28;20371;-44
2021/12/03 05:59:43;;;;;;;12.45;5.90;;;1.50;99.90;;;;;;5095879;28;20518;-44
2021/12/03 06:02:09;;;;;;;18.02;7.00;;;1.60;99.90;;;;;;5091531;28;20052;-44
2021/12/03 06:04:35;;;;;;;11.77;6.40;;;1.60;99.90;;;;;;5084901;28;20058;-45
2021/12/03 06:07:00;;;;;;;13.15;5.57;;;1.60;99.90;;;;;;5095841;28;20155;-46
2021/12/03 06:09:26;;;;;;;11.05;6.13;;;1.60;99.90;;;;;;5095350;28;20020;-44
2021/12/03 06:11:52;;;;;;;11.70;6.43;;;1.70;99.90;;;;;;5094244;28;20070;-44
2021/12/03 06:14:17;;;;;;;10.20;6.03;;;1.70;99.90;;;;;;5075489;28;20091;-43
2021/12/03 06:16:43;;;;;;;15.88;6.22;;;1.70;99.90;;;;;;5074812;28;20024;-44
2021/12/03 06:19:08;;;;;;;10.88;5.80;;;1.70;99.90;;;;;;5075195;28;20032;-43
2021/12/03 06:21:34;;;;;;;10.55;6.40;;;1.70;99.90;;;;;;5076008;28;20028;-44
2021/12/03 06:23:59;;;;;;;14.70;6.20;;;1.80;99.90;;;;;;5094230;28;20040;-45
2021/12/03 06:26:25;;;;;;;16.70;6.38;;;1.80;99.90;;;;;;5095292;28;20035;-43
2021/12/03 06:28:51;;;;;;;9.90;5.68;;;1.80;99.90;;;;;;5095425;28;20024;-44
2021/12/03 06:31:16;;;;;;;14.10;6.95;;;1.80;99.90;;;;;;5094852;28;20024;-46
2021/12/03 06:33:42;;;;;;;11.77;6.53;;;1.80;99.90;;;;;;5076410;28;20020;-43
2021/12/03 06:36:08;;;;;;;11.65;6.60;;;1.80;99.90;;;;;;5074695;28;20031;-44
2021/12/03 06:38:34;;;;;;;9.40;5.60;;;1.90;99.90;;;;;;5074418;28;20017;-43
2021/12/03 06:41:00;;;;;;;14.27;6.07;;;1.80;99.90;;;;;;5081997;28;20040;-44
2021/12/03 06:43:26;;;;;;;12.80;6.05;;;1.90;99.90;;;;;;5094204;28;20415;-43
2021/12/03 06:45:51;;;;;;;11.85;5.80;;;1.90;99.90;;;;;;5094579;28;20116;-43
2021/12/03 06:48:17;;;;;;;5.57;3.90;;;1.90;99.90;;;;;;5095258;28;20070;-43
2021/12/03 06:50:44;;;;;;;12.20;5.70;;;2.00;99.90;;;;;;5094766;28;20020;-45
2021/12/03 06:53:15;;;;;;;11.25;6.28;;;1.90;99.90;;;;;;5078154;28;20036;-44
2021/12/03 06:55:50;;;;;;;10.25;5.88;;;2.00;99.90;;;;;;5074396;28;20053;-44
2021/12/03 06:58:17;;;;;;;5.68;3.53;;;2.00;99.90;;;;;;5074368;28;20024;-43
2021/12/03 07:00:48;;;;;;;8.98;5.28;;;2.00;99.90;;;;;;5074601;28;20043;-43
2021/12/03 07:03:14;;;;;;;9.80;5.72;;;2.00;99.90;;;;;;5084709;28;20033;-43
2021/12/03 07:05:39;;;;;;;13.30;5.95;;;2.10;99.90;;;;;;5106278;28;20475;-44
2021/12/03 07:08:05;;;;;;;11.65;5.28;;;2.10;99.90;;;;;;5114953;28;20080;-44
2021/12/03 07:10:31;;;;;;;10.18;5.85;;;2.10;99.90;;;;;;5114728;28;20454;-43
2021/12/03 07:12:57;;;;;;;11.10;6.35;;;2.20;99.90;;;;;;5104971;28;20066;-44
2021/12/03 07:15:23;;;;;;;11.80;5.13;;;2.10;99.90;;;;;;5094219;28;20024;-43
2021/12/03 07:17:50;;;;;;;11.23;5.70;;;2.20;99.90;;;;;;5103960;28;20035;-44
2021/12/03 07:20:20;;;;;;;11.63;5.50;;;2.20;99.90;;;;;;5101814;28;20035;-44
2021/12/03 07:22:46;;;;;;;11.18;6.28;;;2.20;99.90;;;;;;5093768;28;20024;-44
2021/12/03 07:25:13;;;;;;;10.80;5.85;;;2.20;99.90;;;;;;5094162;28;20100;-42
2021/12/03 07:27:39;;;;;;;11.70;5.38;;;2.20;99.90;;;;;;5093951;28;20429;-42
2021/12/03 07:30:05;;;;;;;14.85;6.90;;;2.20;99.90;;;;;;5094430;28;20020;-42
2021/12/03 07:32:31;;;;;;;14.93;7.72;;;2.20;99.90;;;;;;5091132;28;20035;-44
2021/12/03 07:34:57;;;;;;;12.65;6.63;;;2.20;99.90;;;;;;5073485;28;20044;-43
2021/12/03 07:37:23;;;;;;;11.80;6.72;;;2.20;99.90;;;;;;5073677;28;20463;-43
2021/12/03 07:39:49;;;;;;;15.40;7.35;;;2.30;99.90;;;;;;5090275;28;20047;-44
2021/12/03 07:42:14;;;;;;;14.35;6.22;;;2.20;99.90;;;;;;5102537;28;20023;-42
2021/12/03 07:44:41;;;;;;;13.38;6.78;;;2.20;99.90;;;;;;5102829;28;20012;-42
2021/12/03 07:47:06;;;;;;;15.77;6.95;;;2.20;99.90;;;;;;5101531;28;20116;-46
2021/12/03 07:49:32;;;;;;;17.92;7.53;;;2.20;99.90;;;;;;5103202;28;20082;-43
2021/12/03 07:51:58;;;;;;;15.93;6.22;;;2.20;99.90;;;;;;5101578;28;20177;-43
2021/12/03 07:54:23;;;;;;;17.58;7.10;;;2.20;99.90;;;;;;5098453;28;20023;-43
2021/12/03 07:56:49;;;;;;;16.58;7.70;;;2.20;99.90;;;;;;5100944;28;20012;-44
2021/12/03 07:59:15;;;;;;;16.00;7.65;;;2.30;99.90;;;;;;5101272;28;20074;-43
2021/12/03 08:01:42;;;;;;;16.27;8.02;;;2.20;99.90;;;;;;5099256;28;20226;-43
2021/12/03 08:04:09;;;;;;;13.65;6.18;;;2.20;99.90;;;;;;5101391;28;20031;-43
2021/12/03 08:06:38;;;;;;;15.35;7.20;;;2.20;99.90;;;;;;5098850;28;20091;-44
2021/12/03 08:09:04;;;;;;;17.58;8.02;;;2.30;99.90;;;;;;5101489;28;20027;-43
2021/12/03 08:11:29;;;;;;;12.73;6.90;;;2.30;99.90;;;;;;5103279;28;20024;-46
2021/12/03 08:13:55;;;;;;;13.52;6.93;;;2.20;99.90;;;;;;5101144;28;20138;-44
2021/12/03 08:16:20;;;;;;;17.70;7.90;;;2.20;99.90;;;;;;5099941;28;20076;-44
2021/12/03 08:18:46;;;;;;;16.05;7.95;;;2.30;99.90;;;;;;5103089;28;20047;-42
2021/12/03 08:21:11;;;;;;;21.83;8.43;;;2.20;99.90;;;;;;5100795;28;20597;-48
2021/12/03 08:23:37;;;;;;;16.50;7.63;;;2.30;99.90;;;;;;5102336;28;20072;-42
2021/12/03 08:26:03;;;;;;;16.70;8.25;;;2.30;99.90;;;;;;5100334;28;20020;-45
2021/12/03 08:28:28;;;;;;;16.73;8.80;;;2.30;99.90;;;;;;5099154;28;20083;-43
2021/12/03 08:30:54;;;;;;;18.42;9.35;;;2.30;99.90;;;;;;5080993;28;20024;-44
2021/12/03 08:33:20;;;;;;;16.00;8.23;;;2.40;99.90;;;;;;5091614;28;20024;-42
2021/12/03 08:35:46;;;;;;;19.42;9.88;;;2.40;99.90;;;;;;5091804;28;20026;-44
2021/12/03 08:38:11;;;;;;;19.35;8.43;;;2.40;99.90;;;;;;5091098;28;20382;-43
2021/12/03 08:40:37;;;;;;;19.90;8.15;;;2.50;99.90;;;;;;5091426;28;20085;-42
2021/12/03 08:43:03;;;;;;;21.58;9.50;;;2.50;99.90;;;;;;5090674;28;20507;-43
2021/12/03 08:45:28;;;;;;;19.33;8.90;;;2.50;99.90;;;;;;5090051;28;20020;-42
2021/12/03 08:47:58;;;;;;;19.58;10.30;;;2.60;99.90;;;;;;5091548;28;20081;-42
2021/12/03 08:50:34;;;;;;;19.02;10.05;;;2.50;99.90;;;;;;5090784;28;20028;-42
2021/12/03 08:55:45;;;;;;;22.35;10.25;;;2.60;99.90;;;;;;5089861;28;20422;-44
2021/12/03 08:58:11;;;;;;;25.52;12.57;;;2.70;99.90;;;;;;5086555;28;20024;-43
2021/12/03 09:00:37;;;;;;;29.90;11.77;;;2.70;99.90;;;;;;5092736;28;20024;-43
2021/12/03 09:03:05;;;;;;;26.95;11.93;;;2.70;99.90;;;;;;5081507;28;20074;-42
2021/12/03 09:05:31;;;;;;;21.73;11.97;;;2.70;99.90;;;;;;5071763;28;20029;-43
2021/12/03 09:07:58;;;;;;;26.15;11.60;;;2.80;99.90;;;;;;5072405;28;20259;-42
2021/12/03 09:10:24;;;;;;;23.50;10.32;;;2.80;99.90;;;;;;5072048;28;20016;-43
2021/12/03 09:12:51;;;;;;;26.08;11.38;;;2.80;99.90;;;;;;5079792;28;20061;-43
2021/12/03 09:15:19;;;;;;;25.83;11.52;;;2.80;99.90;;;;;;5092285;28;20534;-45
2021/12/03 09:22:52;;;;;;;26.17;12.07;;;2.90;99.90;;;;;;5091012;28;20035;-43
2021/12/03 09:25:30;;;;;;;28.80;13.75;;;3.00;99.90;;;;;;5089565;28;20028;-43
2021/12/03 09:27:56;;;;;;;34.30;12.18;;;3.00;99.90;;;;;;5090141;28;20063;-43
2021/12/03 09:30:22;;;;;;;23.10;11.57;;;3.00;99.90;;;;;;5090241;28;20063;-43
2021/12/03 09:32:54;;;;;;;31.48;11.57;;;3.00;99.90;;;;;;5082208;28;20530;-44
2021/12/03 09:35:20;;;;;;;26.33;10.60;;;3.10;99.90;;;;;;5072486;28;20116;-42
2021/12/03 09:37:45;;;;;;;22.38;11.88;;;3.10;99.90;;;;;;5079504;28;20135;-45
2021/12/03 09:40:19;;;;;;;27.15;10.88;;;3.10;99.90;;;;;;5084118;28;20035;-44
2021/12/03 09:42:46;;;;;;;39.55;13.57;;;3.10;99.90;;;;;;5096867;28;20455;-43
2021/12/03 09:45:11;;;;;;;33.35;12.48;;;3.20;99.90;;;;;;5090832;28;20021;-43
2021/12/03 09:47:37;;;;;;;27.65;12.73;;;3.20;99.90;;;;;;5089584;28;20024;-44
2021/12/03 09:50:07;;;;;;;32.97;13.00;;;3.20;99.90;;;;;;5089745;28;20102;-42
2021/12/03 09:52:43;;;;;;;28.27;11.48;;;3.30;99.90;;;;;;5090985;28;20395;-43
2021/12/03 09:55:11;;;;;;;29.60;11.10;;;3.20;99.90;;;;;;5091407;28;20064;-43
2021/12/03 09:57:41;;;;;;;27.15;11.13;;;3.30;99.90;;;;;;5090973;28;20065;-44
2021/12/03 10:00:25;;;;;;;26.90;10.00;;;3.30;99.90;;;;;;5091001;28;20383;-47
2021/12/03 10:11:50;;;;;;;22.75;9.73;;;3.50;99.90;;;;;;5084727;28;20042;-44
2021/12/03 10:20:04;;;;;;;21.80;9.55;;;3.60;99.90;;;;;;5090631;28;20038;-42
2021/12/03 10:27:54;;;;;;;20.65;8.93;;;3.70;99.90;;;;;;5090033;28;20032;-43
2021/12/03 10:33:48;;;;;;;24.75;9.48;;;3.80;99.90;;;;;;5091114;28;20093;-42
2021/12/03 10:50:08;;;;;;;20.25;6.35;;;3.80;99.90;;;;;;5093134;28;20056;-43
2021/12/03 10:52:46;;;;;;;14.95;6.28;;;3.80;99.90;;;;;;5091002;28;20027;-44
2021/12/03 10:55:55;;;;;;;17.95;6.63;;;3.80;99.90;;;;;;5093161;28;20050;-43
2021/12/03 11:15:00;;;;;;;16.77;6.18;;;3.90;99.90;;;;;;5093389;28;20118;-43
2021/12/03 11:55:07;;;;;;;10.70;2.20;;;3.80;99.90;;;;;;5029522;28;20164;-42
2021/12/03 12:21:37;;;;;;;10.05;2.90;;;3.60;99.90;;;;;;5091670;28;20039;-43
2021/12/03 12:24:37;;;;;;;7.45;2.85;;;3.60;99.90;;;;;;5090582;28;20097;-42
2021/12/03 12:30:34;;;;;;;5.65;3.85;;;3.50;99.90;;;;;;5091748;28;20122;-43
2021/12/03 12:59:21;;;;;;;3.03;1.83;;;3.60;99.90;;;;;;5072216;28;20042;-42
2021/12/03 13:59:00;;;;;;;4.88;2.42;;;3.90;99.90;;;;;;5074100;28;20036;-42
2021/12/03 14:00:30;;;;;;;9.38;2.95;;;4.00;99.90;;;;;;5061973;28;20055;-43
2021/12/03 14:08:47;;;;;;;7.03;4.22;;;4.00;99.90;;;;;;5075449;28;20028;-43
2021/12/03 14:29:10;;;;;;;6.43;3.60;;;4.10;99.90;;;;;;5088386;28;20036;-42
2021/12/03 14:38:22;;;;;;;5.18;2.92;;;4.20;99.90;;;;;;5092730;28;20089;-45
2021/12/03 14:41:04;;;;;;;5.32;2.50;;;4.20;99.90;;;;;;5095378;28;20071;-40
2021/12/03 14:43:43;;;;;;;5.57;3.30;;;4.20;99.90;;;;;;5094665;28;20032;-40
2021/12/03 14:51:30;;;;;;;7.15;2.78;;;4.40;99.90;;;;;;5074487;28;20111;-42
2021/12/03 14:56:37;;;;;;;8.30;3.58;;;4.40;99.90;;;;;;5074032;28;20049;-41
2021/12/03 14:59:11;;;;;;;10.43;3.25;;;4.50;99.90;;;;;;5076381;28;20056;-40
2021/12/03 15:01:47;;;;;;;7.03;3.45;;;4.50;99.90;;;;;;5083824;28;20043;-41
2021/12/03 15:04:36;;;;;;;7.03;3.50;;;4.50;99.90;;;;;;5083523;28;20435;-42
2021/12/03 15:07:16;;;;;;;4.75;2.95;;;4.50;99.90;;;;;;5093041;28;20557;-42
2021/12/03 15:09:44;;;;;;;4.43;2.60;;;4.50;99.90;;;;;;5093465;28;20485;-40
2021/12/03 15:15:18;;;;;;;6.70;3.60;;;4.60;99.90;;;;;;5091555;28;20422;-41
2021/12/03 15:23:23;;;;;;;4.57;2.65;;;4.70;99.90;;;;;;5092689;28;20047;-41
2021/12/03 16:03:57;;;;;;;7.13;4.03;;;4.80;99.90;;;;;;5088492;28;20405;-42
2021/12/03 16:06:39;;;;;;;7.97;4.15;;;4.80;99.90;;;;;;5073337;28;20040;-42
2021/12/03 16:09:11;;;;;;;9.48;4.15;;;4.70;99.90;;;;;;5073308;28;20372;-43
2021/12/03 16:11:41;;;;;;;5.88;3.85;;;4.70;99.90;;;;;;5073556;28;20032;-42
2021/12/03 16:22:39;;;;;;;6.13;3.72;;;4.70;99.90;;;;;;5092895;28;20044;-42
2021/12/03 16:43:51;;;;;;;10.27;5.40;;;4.70;99.90;;;;;;5092974;28;20058;-40
2021/12/03 16:54:20;;;;;;;13.40;4.88;;;4.80;99.90;;;;;;5072264;28;20033;-40
2021/12/03 16:56:51;;;;;;;7.72;4.97;;;4.80;99.90;;;;;;5052082;28;20136;-41
2021/12/03 16:59:18;;;;;;;8.43;4.88;;;4.70;99.90;;;;;;5052326;28;20037;-42
2021/12/03 17:12:13;;;;;;;6.15;4.38;;;4.70;99.90;;;;;;5051669;28;20116;-41
2021/12/03 17:52:15;;;;;;;10.70;4.95;;;4.70;99.90;;;;;;5072782;28;20039;-42
2021/12/03 17:57:32;;;;;;;8.57;5.25;;;4.70;99.90;;;;;;5076042;28;20047;-40
2021/12/03 17:59:59;;;;;;;12.10;6.63;;;4.70;99.90;;;;;;5075509;28;20110;-40
2021/12/03 18:02:35;;;;;;;11.98;5.53;;;4.70;99.90;;;;;;5075508;28;20020;-41
2021/12/03 18:07:38;;;;;;;12.57;6.55;;;4.70;99.90;;;;;;5074947;28;20080;-41
2021/12/03 18:18:56;;;;;;;11.27;5.78;;;4.70;99.90;;;;;;5075886;28;20116;-41
2021/12/03 18:45:38;;;;;;;13.73;7.72;;;4.80;99.90;;;;;;5081861;28;20075;-39
2021/12/03 18:56:06;;;;;;;13.68;6.40;;;4.90;99.90;;;;;;5094467;28;20052;-39
2021/12/03 18:58:31;;;;;;;;;;;4.90;99.90;;;;;;5095202;28;20053;-40
2021/12/03 19:00:58;;;;;;;12.80;6.03;;;4.90;99.90;;;;;;5095221;28;20362;-43
2021/12/03 19:06:04;;;;;;;12.38;7.15;;;4.90;99.90;;;;;;5094808;28;20032;-39
2021/12/03 19:11:15;;;;;;;14.20;7.32;;;5.00;99.90;;;;;;5094095;28;20032;-40
2021/12/03 19:13:41;;;;;;;13.50;7.15;;;4.90;99.90;;;;;;5086617;28;20427;-39
2021/12/03 19:16:10;;;;;;;16.25;8.23;;;5.00;99.90;;;;;;5074265;28;20052;-40
2021/12/03 19:18:37;;;;;;;19.65;8.88;;;5.00;99.90;;;;;;5073904;28;20079;-40
2021/12/03 19:21:08;;;;;;;21.92;8.55;;;5.00;99.90;;;;;;5074443;28;20028;-41
2021/12/03 19:23:34;;;;;;;15.85;8.90;;;5.00;99.90;;;;;;5074428;28;20459;-41
2021/12/03 19:26:00;;;;;;;16.38;7.15;;;5.00;99.90;;;;;;5094635;28;20043;-40
2021/12/03 19:28:25;;;;;;;17.48;8.10;;;5.00;99.90;;;;;;5094175;28;20051;-39
2021/12/03 19:30:55;;;;;;;20.25;9.43;;;5.00;99.90;;;;;;5094118;28;20074;-39
2021/12/03 19:33:20;;;;;;;18.60;8.85;;;5.00;99.90;;;;;;5093495;28;20031;-40
2021/12/03 19:35:46;;;;;;;17.85;7.95;;;5.00;99.90;;;;;;5094005;28;20020;-41
2021/12/03 19:38:14;;;;;;;15.32;7.93;;;5.00;99.90;;;;;;5093258;28;20077;-41
2021/12/03 19:40:49;;;;;;;18.40;9.45;;;5.10;99.90;;;;;;5094211;28;20486;-40
2021/12/03 19:43:17;;;;;;;19.23;8.68;;;5.10;99.90;;;;;;5094005;28;20031;-41
2021/12/03 19:45:55;;;;;;;16.17;7.15;;;5.10;99.90;;;;;;5092961;28;20125;-40
2021/12/03 19:48:21;;;;;;;15.07;7.78;;;5.10;99.90;;;;;;5093923;28;20035;-40
2021/12/03 19:50:54;;;;;;;16.10;7.60;;;5.10;99.90;;;;;;5094083;28;20020;-40
2021/12/03 19:53:27;;;;;;;18.40;7.63;;;5.10;99.90;;;;;;5087471;28;20025;-41
2021/12/03 19:55:52;;;;;;;15.43;7.13;;;5.10;99.90;;;;;;5087269;28;20186;-39
2021/12/03 19:58:20;;;;;;;16.85;7.90;;;5.10;99.90;;;;;;5093408;28;20479;-40
2021/12/03 20:00:46;;;;;;;17.75;7.75;;;5.10;99.90;;;;;;5073208;28;20124;-40